createdAt,value
2018-07-26T00:01:58.168Z,20.20
2018-07-26T00:04:39.675Z,20.20
2018-07-26T00:07:21.481Z,20.20
2018-07-26T00:10:04.304Z,20.20
2018-07-26T00:12:45.902Z,20.20
2018-07-26T00:15:27.295Z,20.10
2018-07-26T00:18:08.952Z,20.20
2018-07-26T00:20:51.616Z,20.10
2018-07-26T00:23:34.276Z,20.10
2018-07-26T00:26:15.669Z,20.10
2018-07-26T00:28:57.163Z,20.10
2018-07-26T00:31:38.738Z,20.10
2018-07-26T00:34:20.512Z,20.00
2018-07-26T00:37:02.123Z,20.00
2018-07-26T00:39:44.886Z,20.00
2018-07-26T00:42:26.215Z,20.00
2018-07-26T00:45:08.643Z,20.00
2018-07-26T00:47:50.241Z,20.00
2018-07-26T00:50:31.618Z,19.90
2018-07-26T00:53:16.833Z,19.90
2018-07-26T00:58:40.928Z,20.00
2018-07-26T01:01:23.037Z,20.00
2018-07-26T01:04:05.091Z,19.90
2018-07-26T01:06:46.616Z,19.90
2018-07-26T01:09:28.604Z,20.00
2018-07-26T01:12:10.090Z,20.00
2018-07-26T01:14:52.072Z,19.90
2018-07-26T01:17:34.176Z,19.80
2018-07-26T01:20:15.571Z,19.80
2018-07-26T01:25:39.321Z,19.70
2018-07-26T01:28:21.597Z,19.70
2018-07-26T01:31:04.120Z,19.70
2018-07-26T01:33:46.747Z,19.60
2018-07-26T01:36:28.113Z,19.60
2018-07-26T01:39:10.486Z,19.60
2018-07-26T01:41:52.750Z,19.60
2018-07-26T01:44:36.932Z,19.60
2018-07-26T01:47:18.531Z,19.60
2018-07-26T01:49:59.983Z,19.60
2018-07-26T01:52:41.546Z,19.50
2018-07-26T01:55:22.907Z,19.50
2018-07-26T01:58:06.943Z,19.50
2018-07-26T02:04:10.506Z,19.40
2018-07-26T02:06:53.702Z,19.30
2018-07-26T02:09:35.227Z,19.30
2018-07-26T02:12:16.677Z,19.30
2018-07-26T02:14:58.917Z,19.30
2018-07-26T02:17:40.431Z,19.30
2018-07-26T02:20:22.479Z,19.30
2018-07-26T02:23:05.415Z,19.20
2018-07-26T02:25:47.490Z,19.20
2018-07-26T02:28:29.012Z,19.20
2018-07-26T02:31:11.702Z,19.10
2018-07-26T02:33:54.265Z,19.10
2018-07-26T02:36:35.650Z,19.10
2018-07-26T02:39:17.433Z,19.10
2018-07-26T02:41:58.786Z,19.10
2018-07-26T02:44:40.613Z,19.10
2018-07-26T02:47:23.142Z,19.10
2018-07-26T02:50:04.552Z,19.10
2018-07-26T02:52:46.011Z,19.10
2018-07-26T02:55:27.992Z,19.10
2018-07-26T02:58:09.459Z,19.10
2018-07-26T03:00:51.591Z,19.10
2018-07-26T03:03:33.857Z,19.20
2018-07-26T03:06:16.310Z,19.10
2018-07-26T03:08:57.639Z,19.00
2018-07-26T03:11:39.044Z,19.00
2018-07-26T03:14:22.532Z,19.00
2018-07-26T03:17:04.226Z,19.00
2018-07-26T03:19:45.757Z,19.00
2018-07-26T03:22:28.080Z,19.00
2018-07-26T03:27:51.596Z,18.90
2018-07-26T03:30:33.084Z,18.90
2018-07-26T03:33:14.450Z,18.90
2018-07-26T03:35:56.446Z,18.90
2018-07-26T03:38:41.348Z,18.90
2018-07-26T03:41:24.367Z,18.90
2018-07-26T03:44:06.380Z,18.90
2018-07-26T03:46:47.891Z,19.00
2018-07-26T03:49:29.619Z,18.90
2018-07-26T03:52:11.008Z,18.90
2018-07-26T03:54:54.476Z,19.00
2018-07-26T03:57:40.943Z,19.00
2018-07-26T04:00:24.426Z,19.00
2018-07-26T04:03:06.539Z,19.00
2018-07-26T04:05:48.751Z,19.00
2018-07-26T04:08:31.186Z,19.00
2018-07-26T04:11:13.491Z,19.00
2018-07-26T04:13:56.116Z,19.00
2018-07-26T04:16:37.552Z,19.10
2018-07-26T04:19:18.908Z,19.10
2018-07-26T04:22:01.412Z,19.10
2018-07-26T04:24:42.811Z,19.20
2018-07-26T04:27:25.408Z,19.20
2018-07-26T04:30:11.144Z,19.20
2018-07-26T04:32:54.473Z,19.20
2018-07-26T04:35:36.292Z,19.20
2018-07-26T04:38:17.876Z,19.30
2018-07-26T04:41:00.788Z,19.20
2018-07-26T04:43:42.267Z,19.30
2018-07-26T04:46:25.636Z,19.30
2018-07-26T04:49:07.147Z,19.40
2018-07-26T04:51:48.969Z,19.40
2018-07-26T04:54:32.073Z,19.50
2018-07-26T04:57:13.330Z,19.50
2018-07-26T04:59:56.016Z,19.50
2018-07-26T05:02:38.380Z,19.60
2018-07-26T05:05:19.816Z,19.70
2018-07-26T05:08:01.750Z,19.70
2018-07-26T05:10:43.143Z,19.80
2018-07-26T05:16:06.892Z,20.00
2018-07-26T05:18:48.330Z,20.10
2018-07-26T05:21:30.128Z,20.10
2018-07-26T05:24:11.775Z,20.20
2018-07-26T05:26:55.636Z,20.30
2018-07-26T05:32:19.206Z,20.50
2018-07-26T05:35:01.679Z,20.60
2018-07-26T05:37:42.930Z,20.70
2018-07-26T05:40:25.748Z,20.80
2018-07-26T05:43:07.562Z,20.90
2018-07-26T05:45:49.151Z,21.00
2018-07-26T05:48:32.288Z,21.10
2018-07-26T05:51:13.771Z,21.10
2018-07-26T05:53:56.128Z,21.10
2018-07-26T05:56:38.675Z,21.10
2018-07-26T05:59:20.035Z,21.10
2018-07-26T06:02:01.468Z,21.20
2018-07-26T06:04:42.885Z,21.30
2018-07-26T06:07:25.601Z,21.30
2018-07-26T06:10:08.523Z,21.30
2018-07-26T06:12:50.119Z,21.40
2018-07-26T06:15:32.636Z,21.40
2018-07-26T06:18:14.038Z,21.50
2018-07-26T06:20:56.967Z,21.60
2018-07-26T06:26:19.604Z,21.70
2018-07-26T06:29:01.652Z,21.70
2018-07-26T06:31:43.006Z,21.90
2018-07-26T06:34:25.907Z,21.90
2018-07-26T06:37:07.635Z,22.00
2018-07-26T06:39:49.083Z,22.00
2018-07-26T06:42:31.654Z,22.10
2018-07-26T06:45:13.017Z,22.10
2018-07-26T06:47:55.628Z,22.20
2018-07-26T06:50:37.211Z,22.30
2018-07-26T06:53:18.735Z,22.30
2018-07-26T06:56:00.208Z,22.40
2018-07-26T06:58:41.753Z,22.40
2018-07-26T07:01:25.492Z,22.40
2018-07-26T07:04:08.040Z,22.50
2018-07-26T07:06:50.272Z,22.60
2018-07-26T07:09:31.873Z,22.70
2018-07-26T07:12:13.705Z,22.80
2018-07-26T07:17:39.128Z,23.10
2018-07-26T07:23:03.007Z,23.30
2018-07-26T07:25:44.780Z,23.30
2018-07-26T07:28:27.219Z,23.40
2018-07-26T07:31:08.692Z,23.40
2018-07-26T07:33:50.300Z,23.40
2018-07-26T07:36:31.940Z,23.50
2018-07-26T07:39:14.816Z,23.60
2018-07-26T07:41:57.227Z,23.70
2018-07-26T07:44:38.570Z,23.70
2018-07-26T07:47:21.510Z,23.90
2018-07-26T07:50:03.033Z,23.90
2018-07-26T07:52:44.452Z,23.90
2018-07-26T07:55:26.832Z,24.10
2018-07-26T07:58:08.299Z,24.30
2018-07-26T08:00:49.999Z,24.50
2018-07-26T08:03:31.674Z,24.50
2018-07-26T08:06:13.169Z,24.60
2018-07-26T08:08:55.341Z,24.50
2018-07-26T08:11:38.336Z,24.50
2018-07-26T08:14:19.705Z,24.50
2018-07-26T08:17:02.405Z,24.50
2018-07-26T08:19:43.862Z,24.70
2018-07-26T08:22:25.961Z,24.90
2018-07-26T08:25:08.573Z,25.00
2018-07-26T08:27:50.028Z,25.20
2018-07-26T08:30:31.496Z,25.70
2018-07-26T08:33:12.929Z,25.90
2018-07-26T08:35:56.152Z,25.90
2018-07-26T08:38:37.800Z,25.80
2018-07-26T08:41:19.345Z,25.70
2018-07-26T08:44:01.696Z,25.70
2018-07-26T08:46:43.207Z,25.80
2018-07-26T08:49:25.605Z,25.90
2018-07-26T08:52:07.212Z,26.10
2018-07-26T08:54:49.107Z,26.20
2018-07-26T08:57:31.284Z,26.20
2018-07-26T09:00:16.285Z,26.10
2018-07-26T09:02:57.859Z,26.00
2018-07-26T09:05:39.214Z,26.00
2018-07-26T09:08:21.801Z,25.70
2018-07-26T09:11:04.557Z,25.50
2018-07-26T09:13:46.168Z,25.40
2018-07-26T09:16:27.706Z,25.40
2018-07-26T09:19:09.252Z,25.60
2018-07-26T09:21:51.513Z,25.60
2018-07-26T09:24:33.160Z,25.70
2018-07-26T09:27:14.504Z,25.60
2018-07-26T09:29:56.576Z,25.40
2018-07-26T09:32:39.877Z,25.20
2018-07-26T09:35:22.788Z,25.10
2018-07-26T09:38:04.362Z,25.10
2018-07-26T09:40:45.757Z,25.10
2018-07-26T09:43:27.177Z,25.00
2018-07-26T09:46:08.758Z,24.90
2018-07-26T09:48:51.791Z,24.80
2018-07-26T09:51:34.882Z,24.70
2018-07-26T09:54:17.255Z,24.60
2018-07-26T09:56:58.648Z,24.70
2018-07-26T09:59:41.613Z,24.70
2018-07-26T10:02:24.444Z,24.70
2018-07-26T10:05:06.737Z,24.70
2018-07-26T10:07:48.702Z,24.70
2018-07-26T10:10:31.716Z,24.70
2018-07-26T10:13:13.322Z,24.70
2018-07-26T10:15:55.632Z,24.70
2018-07-26T10:18:40.900Z,24.80
2018-07-26T10:21:24.526Z,24.80
2018-07-26T10:26:47.273Z,24.90
2018-07-26T10:29:28.771Z,24.90
2018-07-26T10:32:10.445Z,24.90
2018-07-26T10:34:54.529Z,24.90
2018-07-26T10:37:36.170Z,24.90
2018-07-26T10:40:17.625Z,24.90
2018-07-26T10:42:59.648Z,24.90
2018-07-26T10:45:41.140Z,25.00
2018-07-26T10:48:24.692Z,25.00
2018-07-26T10:51:06.149Z,25.10
2018-07-26T10:53:47.568Z,25.20
2018-07-26T10:56:29.314Z,25.30
2018-07-26T10:59:10.649Z,25.40
2018-07-26T11:01:54.492Z,25.40
2018-07-26T11:04:35.925Z,25.40
2018-07-26T11:07:17.444Z,25.50
2018-07-26T11:09:59.806Z,25.50
2018-07-26T11:12:41.189Z,25.40
2018-07-26T11:15:29.575Z,25.50
2018-07-26T11:18:11.517Z,25.50
2018-07-26T11:20:54.831Z,25.70
2018-07-26T11:23:36.213Z,25.80
2018-07-26T11:26:17.748Z,25.90
2018-07-26T11:28:59.041Z,25.90
2018-07-26T11:31:40.450Z,26.00
2018-07-26T11:37:05.113Z,26.10
2018-07-26T11:39:46.710Z,26.10
2018-07-26T11:42:28.059Z,26.00
2018-07-26T11:45:10.761Z,26.00
2018-07-26T11:47:54.728Z,26.00
2018-07-26T11:53:17.232Z,26.10
2018-07-26T11:55:58.577Z,26.10
2018-07-26T11:58:40.621Z,26.00
2018-07-26T12:01:23.276Z,26.00
2018-07-26T12:04:04.846Z,26.00
2018-07-26T12:06:46.316Z,26.10
2018-07-26T12:09:27.872Z,26.20
2018-07-26T12:12:10.546Z,26.20
2018-07-26T12:14:53.134Z,26.20
2018-07-26T12:17:34.650Z,26.30
2018-07-26T12:20:16.077Z,26.40
2018-07-26T12:22:57.548Z,26.40
2018-07-26T12:25:38.941Z,26.50
2018-07-26T12:28:21.828Z,26.60
2018-07-26T12:31:04.368Z,26.50
2018-07-26T12:33:45.645Z,26.30
2018-07-26T12:36:27.364Z,26.20
2018-07-26T12:39:11.448Z,26.20
2018-07-26T12:41:55.690Z,26.30
2018-07-26T12:44:37.016Z,26.30
2018-07-26T12:47:18.422Z,26.30
2018-07-26T12:49:59.987Z,26.30
2018-07-26T12:52:41.421Z,26.50
2018-07-26T12:55:24.631Z,26.60
2018-07-26T12:58:05.925Z,26.70
2018-07-26T13:00:47.206Z,26.70
2018-07-26T13:03:28.568Z,26.70
2018-07-26T13:06:09.948Z,26.80
2018-07-26T13:11:34.104Z,27.00
2018-07-26T13:14:15.517Z,27.00
2018-07-26T13:16:57.465Z,26.90
2018-07-26T13:19:38.902Z,26.80
2018-07-26T13:22:21.658Z,26.70
2018-07-26T13:25:03.029Z,26.70
2018-07-26T13:27:44.549Z,26.60
2018-07-26T13:30:26.687Z,26.40
2018-07-26T13:33:08.862Z,26.20
2018-07-26T13:35:50.985Z,26.10
2018-07-26T13:38:35.169Z,25.90
2018-07-26T13:41:19.429Z,25.70
2018-07-26T13:44:01.569Z,25.10
2018-07-26T13:46:42.964Z,24.60
2018-07-26T13:49:25.674Z,24.10
2018-07-26T13:52:07.482Z,23.60
2018-07-26T13:57:30.296Z,23.00
2018-07-26T14:00:14.492Z,22.80
2018-07-26T14:02:57.452Z,22.70
2018-07-26T14:05:39.012Z,22.70
2018-07-26T14:08:21.896Z,22.70
2018-07-26T14:11:03.331Z,22.60
2018-07-26T14:13:44.877Z,22.60
2018-07-26T14:16:27.255Z,22.50
2018-07-26T14:19:09.773Z,22.60
2018-07-26T14:21:51.887Z,22.60
2018-07-26T14:24:33.817Z,22.60
2018-07-26T14:27:15.272Z,22.50
2018-07-26T14:29:58.056Z,22.40
2018-07-26T14:32:39.499Z,22.40
2018-07-26T14:35:21.773Z,22.40
2018-07-26T14:38:03.108Z,22.30
2018-07-26T14:40:44.605Z,22.30
2018-07-26T14:43:27.242Z,22.30
2018-07-26T14:46:08.917Z,22.30
2018-07-26T14:48:50.459Z,22.40
2018-07-26T14:51:31.907Z,22.50
2018-07-26T14:54:14.140Z,22.50
2018-07-26T14:56:56.181Z,22.40
2018-07-26T14:59:37.558Z,22.40
2018-07-26T15:02:19.949Z,22.40
2018-07-26T15:05:01.845Z,22.50
2018-07-26T15:07:43.272Z,22.50
2018-07-26T15:10:26.028Z,22.50
2018-07-26T15:15:48.726Z,22.60
2018-07-26T15:18:30.577Z,22.70
2018-07-26T15:21:12.842Z,22.70
2018-07-26T15:23:55.787Z,22.70
2018-07-26T15:26:37.723Z,22.70
2018-07-26T15:29:19.316Z,22.70
2018-07-26T15:32:01.399Z,22.80
2018-07-26T15:34:43.165Z,22.80
2018-07-26T15:37:25.620Z,22.80
2018-07-26T15:40:08.065Z,22.80
2018-07-26T15:42:49.925Z,22.80
2018-07-26T15:45:32.198Z,22.80
2018-07-26T15:48:13.774Z,22.90
2018-07-26T15:50:59.120Z,22.90
2018-07-26T15:53:41.057Z,22.90
2018-07-26T15:56:23.375Z,23.00
2018-07-26T15:59:04.988Z,23.00
2018-07-26T16:01:46.485Z,23.00
2018-07-26T16:07:08.985Z,23.00
2018-07-26T16:09:51.889Z,23.00
2018-07-26T16:12:46.098Z,23.10
2018-07-26T16:15:30.313Z,23.10
2018-07-26T16:18:15.245Z,23.10
2018-07-26T16:20:57.356Z,23.10
2018-07-26T16:23:41.881Z,23.10
2018-07-26T16:26:23.928Z,23.20
2018-07-26T16:29:06.545Z,23.20
2018-07-26T16:31:48.689Z,23.30
2018-07-26T16:34:31.274Z,23.30
2018-07-26T16:37:13.090Z,23.30
2018-07-26T16:39:54.768Z,23.30
2018-07-26T16:42:36.179Z,23.30
2018-07-26T16:45:17.589Z,23.40
2018-07-26T16:47:59.048Z,23.40
2018-07-26T16:50:40.804Z,23.40
2018-07-26T16:53:22.591Z,23.40
2018-07-26T16:56:05.475Z,23.40
2018-07-26T16:58:47.475Z,23.50
2018-07-26T17:01:28.926Z,23.50
2018-07-26T17:04:10.411Z,23.50
2018-07-26T17:06:52.839Z,23.50
2018-07-26T17:09:34.900Z,23.50
2018-07-26T17:12:16.463Z,23.50
2018-07-26T17:14:57.959Z,23.50
2018-07-26T17:17:52.983Z,23.50
2018-07-26T17:20:38.236Z,23.40
2018-07-26T17:23:20.643Z,23.40
2018-07-26T17:26:04.128Z,23.40
2018-07-26T17:28:45.630Z,23.30
2018-07-26T17:31:27.148Z,23.30
2018-07-26T17:34:08.640Z,23.30
2018-07-26T17:36:50.953Z,23.30
2018-07-26T17:39:33.614Z,23.30
2018-07-26T17:42:15.245Z,23.30
2018-07-26T17:44:57.190Z,23.20
2018-07-26T17:47:38.760Z,23.20
2018-07-26T17:50:20.677Z,23.20
2018-07-26T17:53:18.663Z,23.20
2018-07-26T17:56:00.212Z,23.10
2018-07-26T17:58:42.987Z,23.10
2018-07-26T18:01:24.384Z,23.10
2018-07-26T18:04:06.496Z,23.10
2018-07-26T18:06:47.954Z,23.10
2018-07-26T18:09:29.369Z,23.10
2018-07-26T18:12:11.459Z,23.00
2018-07-26T18:14:53.023Z,22.90
2018-07-26T18:17:35.847Z,22.80
2018-07-26T18:20:17.425Z,22.80
2018-07-26T18:22:58.999Z,22.80
2018-07-26T18:25:41.351Z,22.80
2018-07-26T18:28:22.801Z,22.70
2018-07-26T18:31:05.390Z,22.70
2018-07-26T18:33:48.244Z,22.70
2018-07-26T18:36:29.544Z,22.60
2018-07-26T18:39:13.433Z,22.60
2018-07-26T18:41:55.093Z,22.50
2018-07-26T18:44:37.053Z,22.50
2018-07-26T18:47:19.812Z,22.60
2018-07-26T18:50:02.423Z,22.50
2018-07-26T18:52:44.047Z,22.50
2018-07-26T18:55:25.452Z,22.50
2018-07-26T18:58:07.412Z,22.40
2018-07-26T19:00:49.700Z,22.30
2018-07-26T19:03:32.347Z,22.30
2018-07-26T19:06:14.345Z,22.20
2018-07-26T19:08:57.675Z,22.20
2018-07-26T19:11:42.209Z,22.20
2018-07-26T19:14:23.993Z,22.10
2018-07-26T19:17:06.548Z,22.00
2018-07-26T19:20:20.365Z,22.00
2018-07-26T19:23:01.909Z,22.00
2018-07-26T19:25:45.089Z,21.90
2018-07-26T19:28:27.060Z,21.80
2018-07-26T19:31:09.568Z,21.80
2018-07-26T19:33:51.592Z,21.70
2018-07-26T19:36:33.055Z,21.70
2018-07-26T19:39:14.760Z,21.70
2018-07-26T19:41:56.997Z,21.60
2018-07-26T19:44:40.209Z,21.60
2018-07-26T19:47:21.695Z,21.60
2018-07-26T19:50:03.297Z,21.60
2018-07-26T19:52:46.128Z,21.60
2018-07-26T19:55:27.613Z,21.60
2018-07-26T19:58:09.989Z,21.60
2018-07-26T20:01:05.560Z,21.60
2018-07-26T20:03:48.090Z,21.60
2018-07-26T20:06:29.548Z,21.50
2018-07-26T20:09:11.936Z,21.50
2018-07-26T20:12:00.312Z,21.50
2018-07-26T20:20:34.146Z,21.40
2018-07-26T20:23:16.534Z,21.30
2018-07-26T20:25:57.977Z,21.20
2018-07-26T20:28:43.944Z,21.20
2018-07-26T20:31:26.364Z,21.20
2018-07-26T20:34:08.001Z,21.20
2018-07-26T20:36:49.594Z,21.20
2018-07-26T20:39:31.011Z,21.20
2018-07-26T20:42:13.563Z,21.10
2018-07-26T20:44:54.973Z,21.10
2018-07-26T20:47:36.379Z,21.10
2018-07-26T20:50:18.833Z,21.10
2018-07-26T20:53:00.498Z,21.10
2018-07-26T20:55:41.958Z,21.00
2018-07-26T20:58:24.315Z,21.00
2018-07-26T21:01:05.886Z,20.90
2018-07-26T21:03:48.498Z,20.90
2018-07-26T21:06:30.060Z,20.90
2018-07-26T21:09:13.753Z,20.90
2018-07-26T21:11:55.335Z,20.80
2018-07-26T21:14:36.821Z,20.80
2018-07-26T21:17:18.966Z,20.70
2018-07-26T21:20:03.483Z,20.70
2018-07-26T21:22:46.661Z,20.70
2018-07-26T21:25:28.228Z,20.70
2018-07-26T21:28:09.853Z,20.70
2018-07-26T21:30:52.396Z,20.70
2018-07-26T21:33:33.939Z,20.70
2018-07-26T21:36:16.772Z,20.70
2018-07-26T21:38:58.222Z,20.70
2018-07-26T21:41:40.351Z,20.60
2018-07-26T21:44:21.746Z,20.60
2018-07-26T21:47:03.573Z,20.60
2018-07-26T21:49:49.935Z,20.60
2018-07-26T21:52:31.455Z,20.50
2018-07-26T21:55:13.179Z,20.60
2018-07-26T21:57:55.140Z,20.50
2018-07-26T22:00:42.071Z,20.50
2018-07-26T22:03:23.676Z,20.50
2018-07-26T22:06:06.488Z,20.40
2018-07-26T22:08:49.888Z,20.40
2018-07-26T22:11:31.425Z,20.40
2018-07-26T22:14:12.812Z,20.40
2018-07-26T22:16:55.005Z,20.40
2018-07-26T22:19:36.440Z,20.30
2018-07-26T22:22:19.686Z,20.30
2018-07-26T22:27:42.922Z,20.20
2018-07-26T22:30:26.213Z,20.20
2018-07-26T22:33:08.692Z,20.20
2018-07-26T22:35:51.038Z,20.20
2018-07-26T22:38:33.093Z,20.20
2018-07-26T22:41:15.137Z,20.10
2018-07-26T22:43:57.730Z,20.10
2018-07-26T22:49:22.602Z,20.20
2018-07-26T22:52:04.111Z,20.10
2018-07-26T22:54:45.545Z,20.00
2018-07-26T22:57:27.334Z,20.00
2018-07-26T23:00:09.194Z,20.10
2018-07-26T23:02:52.507Z,20.10
2018-07-26T23:05:33.917Z,20.10
2018-07-26T23:08:16.653Z,20.00
2018-07-26T23:10:58.473Z,20.00
2018-07-26T23:13:40.000Z,20.00
2018-07-26T23:16:21.999Z,20.10
2018-07-26T23:19:04.991Z,20.10
2018-07-26T23:21:48.651Z,20.00
2018-07-26T23:24:30.922Z,20.00
2018-07-26T23:27:12.709Z,19.90
2018-07-26T23:29:55.113Z,19.90
2018-07-26T23:32:36.521Z,19.90
2018-07-26T23:35:17.979Z,19.90
2018-07-26T23:37:59.613Z,19.90
2018-07-26T23:40:41.954Z,19.90
2018-07-26T23:43:24.878Z,19.90
2018-07-26T23:46:07.309Z,19.90
2018-07-26T23:48:51.034Z,19.90
2018-07-26T23:51:33.396Z,19.90
2018-07-26T23:54:14.876Z,19.90
2018-07-26T23:56:57.196Z,19.80
2018-07-26T23:59:38.676Z,19.80
